sensor_id;sensor_type;location;lat;lon;timestamp;P1;durP1;ratioP1;P2;durP2;ratioP2
11422;SDS011;5768;51.476;7.210;2023-08-20T00:01:15;11.60;;;10.05;;
11422;SDS011;5768;51.476;7.210;2023-08-20T00:06:25;10.40;;;9.48;;
11422;SDS011;5768;51.476;7.210;2023-08-20T00:11:27;11.07;;;10.00;;
11422;SDS011;5768;51.476;7.210;2023-08-20T00:16:33;11.40;;;10.18;;
11422;SDS011;5768;51.476;7.210;2023-08-20T00:21:38;11.73;;;9.77;;
11422;SDS011;5768;51.476;7.210;2023-08-20T00:26:43;11.82;;;10.77;;
11422;SDS011;5768;51.476;7.210;2023-08-20T00:31:48;12.68;;;11.48;;
11422;SDS011;5768;51.476;7.210;2023-08-20T00:36:50;13.70;;;12.02;;
11422;SDS011;5768;51.476;7.210;2023-08-20T00:41:52;12.43;;;10.85;;
11422;SDS011;5768;51.476;7.210;2023-08-20T00:46:56;11.27;;;10.15;;
11422;SDS011;5768;51.476;7.210;2023-08-20T00:52:00;10.93;;;9.85;;
11422;SDS011;5768;51.476;7.210;2023-08-20T00:57:05;12.57;;;10.30;;
11422;SDS011;5768;51.476;7.210;2023-08-20T01:02:10;12.48;;;11.27;;
11422;SDS011;5768;51.476;7.210;2023-08-20T01:07:14;11.15;;;10.10;;
11422;SDS011;5768;51.476;7.210;2023-08-20T01:12:26;12.68;;;11.43;;
11422;SDS011;5768;51.476;7.210;2023-08-20T01:17:32;12.88;;;11.52;;
11422;SDS011;5768;51.476;7.210;2023-08-20T01:22:40;13.10;;;11.82;;
11422;SDS011;5768;51.476;7.210;2023-08-20T01:28:19;13.95;;;12.55;;
11422;SDS011;5768;51.476;7.210;2023-08-20T01:33:27;12.68;;;11.13;;
11422;SDS011;5768;51.476;7.210;2023-08-20T01:38:30;14.50;;;13.00;;
11422;SDS011;5768;51.476;7.210;2023-08-20T01:43:34;16.73;;;15.02;;
11422;SDS011;5768;51.476;7.210;2023-08-20T01:48:36;17.65;;;15.65;;
11422;SDS011;5768;51.476;7.210;2023-08-20T01:53:38;18.05;;;16.10;;
11422;SDS011;5768;51.476;7.210;2023-08-20T01:58:42;17.23;;;15.15;;
11422;SDS011;5768;51.476;7.210;2023-08-20T02:03:44;21.58;;;17.17;;
11422;SDS011;5768;51.476;7.210;2023-08-20T02:08:47;19.00;;;16.98;;
11422;SDS011;5768;51.476;7.210;2023-08-20T02:13:50;20.92;;;17.08;;
11422;SDS011;5768;51.476;7.210;2023-08-20T02:18:53;20.85;;;17.60;;
11422;SDS011;5768;51.476;7.210;2023-08-20T02:23:55;20.23;;;18.15;;
11422;SDS011;5768;51.476;7.210;2023-08-20T02:28:59;19.85;;;17.75;;
11422;SDS011;5768;51.476;7.210;2023-08-20T02:34:01;20.67;;;17.40;;
11422;SDS011;5768;51.476;7.210;2023-08-20T02:39:03;20.10;;;17.08;;
11422;SDS011;5768;51.476;7.210;2023-08-20T02:44:09;24.73;;;19.73;;
11422;SDS011;5768;51.476;7.210;2023-08-20T02:49:11;21.08;;;17.67;;
11422;SDS011;5768;51.476;7.210;2023-08-20T02:54:15;20.00;;;16.73;;
11422;SDS011;5768;51.476;7.210;2023-08-20T02:59:19;18.30;;;16.35;;
11422;SDS011;5768;51.476;7.210;2023-08-20T03:04:21;19.40;;;16.80;;
11422;SDS011;5768;51.476;7.210;2023-08-20T03:09:23;21.58;;;16.88;;
11422;SDS011;5768;51.476;7.210;2023-08-20T03:14:27;19.65;;;17.40;;
11422;SDS011;5768;51.476;7.210;2023-08-20T03:19:33;19.25;;;17.20;;
11422;SDS011;5768;51.476;7.210;2023-08-20T03:24:36;19.27;;;17.15;;
11422;SDS011;5768;51.476;7.210;2023-08-20T03:29:40;20.15;;;17.15;;
11422;SDS011;5768;51.476;7.210;2023-08-20T03:34:42;19.75;;;17.65;;
11422;SDS011;5768;51.476;7.210;2023-08-20T03:39:44;21.02;;;16.45;;
11422;SDS011;5768;51.476;7.210;2023-08-20T03:44:48;21.33;;;17.67;;
11422;SDS011;5768;51.476;7.210;2023-08-20T03:49:50;19.00;;;16.15;;
11422;SDS011;5768;51.476;7.210;2023-08-20T03:54:53;17.98;;;16.17;;
11422;SDS011;5768;51.476;7.210;2023-08-20T03:59:57;18.73;;;16.38;;
11422;SDS011;5768;51.476;7.210;2023-08-20T04:04:59;18.50;;;16.60;;
11422;SDS011;5768;51.476;7.210;2023-08-20T04:10:01;20.27;;;17.00;;
11422;SDS011;5768;51.476;7.210;2023-08-20T04:15:06;21.33;;;17.70;;
11422;SDS011;5768;51.476;7.210;2023-08-20T04:20:09;20.88;;;18.67;;
11422;SDS011;5768;51.476;7.210;2023-08-20T04:25:12;26.17;;;20.80;;
11422;SDS011;5768;51.476;7.210;2023-08-20T04:30:15;33.28;;;26.00;;
11422;SDS011;5768;51.476;7.210;2023-08-20T04:35:18;39.08;;;27.75;;
11422;SDS011;5768;51.476;7.210;2023-08-20T04:40:20;41.05;;;31.63;;
11422;SDS011;5768;51.476;7.210;2023-08-20T04:45:24;61.78;;;34.05;;
11422;SDS011;5768;51.476;7.210;2023-08-20T04:50:26;52.47;;;33.97;;
11422;SDS011;5768;51.476;7.210;2023-08-20T04:55:29;56.97;;;34.45;;
11422;SDS011;5768;51.476;7.210;2023-08-20T05:00:33;57.33;;;32.60;;
11422;SDS011;5768;51.476;7.210;2023-08-20T05:05:35;46.35;;;31.50;;
11422;SDS011;5768;51.476;7.210;2023-08-20T05:10:38;35.40;;;28.10;;
11422;SDS011;5768;51.476;7.210;2023-08-20T05:15:41;34.00;;;27.40;;
11422;SDS011;5768;51.476;7.210;2023-08-20T05:20:44;32.92;;;27.10;;
11422;SDS011;5768;51.476;7.210;2023-08-20T05:25:46;40.63;;;28.80;;
11422;SDS011;5768;51.476;7.210;2023-08-20T05:30:55;39.28;;;29.75;;
11422;SDS011;5768;51.476;7.210;2023-08-20T05:35:59;39.97;;;31.08;;
11422;SDS011;5768;51.476;7.210;2023-08-20T05:41:01;42.42;;;30.00;;
11422;SDS011;5768;51.476;7.210;2023-08-20T05:46:05;44.20;;;29.23;;
11422;SDS011;5768;51.476;7.210;2023-08-20T05:51:07;43.72;;;30.08;;
11422;SDS011;5768;51.476;7.210;2023-08-20T05:56:10;36.33;;;28.77;;
11422;SDS011;5768;51.476;7.210;2023-08-20T06:01:14;33.25;;;27.50;;
11422;SDS011;5768;51.476;7.210;2023-08-20T06:06:16;36.40;;;27.95;;
11422;SDS011;5768;51.476;7.210;2023-08-20T06:11:18;37.92;;;28.05;;
11422;SDS011;5768;51.476;7.210;2023-08-20T06:16:23;33.00;;;27.27;;
11422;SDS011;5768;51.476;7.210;2023-08-20T06:21:25;34.15;;;26.60;;
11422;SDS011;5768;51.476;7.210;2023-08-20T06:26:27;34.45;;;26.73;;
11422;SDS011;5768;51.476;7.210;2023-08-20T06:31:31;29.08;;;25.90;;
11422;SDS011;5768;51.476;7.210;2023-08-20T06:36:33;29.50;;;24.27;;
11422;SDS011;5768;51.476;7.210;2023-08-20T06:41:36;27.73;;;22.65;;
11422;SDS011;5768;51.476;7.210;2023-08-20T06:46:39;26.08;;;21.25;;
11422;SDS011;5768;51.476;7.210;2023-08-20T06:51:42;32.30;;;26.15;;
11422;SDS011;5768;51.476;7.210;2023-08-20T06:56:44;23.50;;;20.60;;
11422;SDS011;5768;51.476;7.210;2023-08-20T07:01:48;23.23;;;19.52;;
11422;SDS011;5768;51.476;7.210;2023-08-20T07:06:50;20.17;;;18.02;;
11422;SDS011;5768;51.476;7.210;2023-08-20T07:11:53;19.17;;;17.27;;
11422;SDS011;5768;51.476;7.210;2023-08-20T07:16:56;19.33;;;17.42;;
11422;SDS011;5768;51.476;7.210;2023-08-20T07:22:06;17.70;;;15.90;;
11422;SDS011;5768;51.476;7.210;2023-08-20T07:27:08;17.42;;;15.55;;
11422;SDS011;5768;51.476;7.210;2023-08-20T07:32:14;17.20;;;15.50;;
11422;SDS011;5768;51.476;7.210;2023-08-20T07:37:16;16.77;;;15.10;;
11422;SDS011;5768;51.476;7.210;2023-08-20T07:42:18;16.80;;;15.02;;
11422;SDS011;5768;51.476;7.210;2023-08-20T07:47:22;16.42;;;14.75;;
11422;SDS011;5768;51.476;7.210;2023-08-20T07:52:24;15.30;;;13.70;;
11422;SDS011;5768;51.476;7.210;2023-08-20T07:57:26;14.45;;;13.07;;
11422;SDS011;5768;51.476;7.210;2023-08-20T08:02:30;13.32;;;11.85;;
11422;SDS011;5768;51.476;7.210;2023-08-20T08:07:32;12.65;;;11.52;;
11422;SDS011;5768;51.476;7.210;2023-08-20T08:12:34;13.20;;;11.90;;
11422;SDS011;5768;51.476;7.210;2023-08-20T08:17:38;14.07;;;12.70;;
11422;SDS011;5768;51.476;7.210;2023-08-20T08:22:40;11.02;;;10.10;;
11422;SDS011;5768;51.476;7.210;2023-08-20T08:27:43;10.10;;;9.20;;
11422;SDS011;5768;51.476;7.210;2023-08-20T08:32:47;12.70;;;11.50;;
11422;SDS011;5768;51.476;7.210;2023-08-20T08:37:49;8.10;;;7.30;;
11422;SDS011;5768;51.476;7.210;2023-08-20T08:42:52;6.13;;;5.50;;
11422;SDS011;5768;51.476;7.210;2023-08-20T08:47:56;7.32;;;6.20;;
11422;SDS011;5768;51.476;7.210;2023-08-20T08:52:59;9.35;;;8.20;;
11422;SDS011;5768;51.476;7.210;2023-08-20T08:58:01;7.95;;;7.25;;
11422;SDS011;5768;51.476;7.210;2023-08-20T09:03:05;7.07;;;6.47;;
11422;SDS011;5768;51.476;7.210;2023-08-20T09:08:07;7.55;;;6.85;;
11422;SDS011;5768;51.476;7.210;2023-08-20T09:13:09;6.35;;;5.75;;
11422;SDS011;5768;51.476;7.210;2023-08-20T09:18:14;6.45;;;5.82;;
11422;SDS011;5768;51.476;7.210;2023-08-20T09:23:16;5.80;;;5.20;;
11422;SDS011;5768;51.476;7.210;2023-08-20T09:28:19;5.85;;;5.30;;
11422;SDS011;5768;51.476;7.210;2023-08-20T09:33:25;5.20;;;4.70;;
11422;SDS011;5768;51.476;7.210;2023-08-20T09:38:28;6.18;;;5.57;;
11422;SDS011;5768;51.476;7.210;2023-08-20T09:43:30;6.93;;;6.22;;
11422;SDS011;5768;51.476;7.210;2023-08-20T09:48:38;7.22;;;6.60;;
11422;SDS011;5768;51.476;7.210;2023-08-20T09:53:44;8.55;;;6.80;;
11422;SDS011;5768;51.476;7.210;2023-08-20T09:58:57;6.90;;;6.18;;
11422;SDS011;5768;51.476;7.210;2023-08-20T10:04:01;7.13;;;6.50;;
11422;SDS011;5768;51.476;7.210;2023-08-20T10:09:05;5.90;;;5.13;;
11422;SDS011;5768;51.476;7.210;2023-08-20T10:14:08;5.70;;;5.20;;
11422;SDS011;5768;51.476;7.210;2023-08-20T10:19:12;7.95;;;6.10;;
11422;SDS011;5768;51.476;7.210;2023-08-20T10:24:17;7.18;;;6.07;;
11422;SDS011;5768;51.476;7.210;2023-08-20T10:29:39;6.70;;;6.00;;
11422;SDS011;5768;51.476;7.210;2023-08-20T10:34:49;6.45;;;5.82;;
11422;SDS011;5768;51.476;7.210;2023-08-20T10:39:53;7.13;;;5.78;;
11422;SDS011;5768;51.476;7.210;2023-08-20T10:45:01;6.00;;;5.50;;
11422;SDS011;5768;51.476;7.210;2023-08-20T10:50:10;6.30;;;5.70;;
11422;SDS011;5768;51.476;7.210;2023-08-20T10:55:21;6.47;;;5.93;;
11422;SDS011;5768;51.476;7.210;2023-08-20T11:00:24;7.22;;;6.30;;
11422;SDS011;5768;51.476;7.210;2023-08-20T11:05:29;7.07;;;6.22;;
11422;SDS011;5768;51.476;7.210;2023-08-20T11:10:32;6.60;;;6.00;;
11422;SDS011;5768;51.476;7.210;2023-08-20T11:15:36;7.32;;;6.63;;
11422;SDS011;5768;51.476;7.210;2023-08-20T11:20:40;11.63;;;10.52;;
11422;SDS011;5768;51.476;7.210;2023-08-20T11:25:42;10.25;;;9.35;;
11422;SDS011;5768;51.476;7.210;2023-08-20T11:30:45;10.02;;;9.00;;
11422;SDS011;5768;51.476;7.210;2023-08-20T11:35:50;12.63;;;11.52;;
11422;SDS011;5768;51.476;7.210;2023-08-20T11:40:54;14.95;;;13.65;;
11422;SDS011;5768;51.476;7.210;2023-08-20T11:45:57;13.15;;;11.95;;
11422;SDS011;5768;51.476;7.210;2023-08-20T11:51:01;14.63;;;13.43;;
11422;SDS011;5768;51.476;7.210;2023-08-20T11:56:05;14.18;;;12.70;;
11422;SDS011;5768;51.476;7.210;2023-08-20T12:01:08;12.68;;;11.68;;
11422;SDS011;5768;51.476;7.210;2023-08-20T12:06:21;13.38;;;12.10;;
11422;SDS011;5768;51.476;7.210;2023-08-20T12:11:27;13.25;;;12.05;;
11422;SDS011;5768;51.476;7.210;2023-08-20T12:16:30;11.70;;;10.45;;
11422;SDS011;5768;51.476;7.210;2023-08-20T12:21:34;10.50;;;9.57;;
11422;SDS011;5768;51.476;7.210;2023-08-20T12:26:36;9.00;;;8.15;;
11422;SDS011;5768;51.476;7.210;2023-08-20T12:31:39;7.88;;;7.07;;
11422;SDS011;5768;51.476;7.210;2023-08-20T12:36:44;7.68;;;6.97;;
11422;SDS011;5768;51.476;7.210;2023-08-20T12:41:46;8.45;;;7.57;;
11422;SDS011;5768;51.476;7.210;2023-08-20T12:46:48;7.28;;;6.57;;
11422;SDS011;5768;51.476;7.210;2023-08-20T12:51:52;6.88;;;6.28;;
11422;SDS011;5768;51.476;7.210;2023-08-20T12:56:55;8.10;;;7.30;;
11422;SDS011;5768;51.476;7.210;2023-08-20T13:01:57;8.20;;;6.88;;
11422;SDS011;5768;51.476;7.210;2023-08-20T13:07:02;7.05;;;6.40;;
11422;SDS011;5768;51.476;7.210;2023-08-20T13:12:06;7.03;;;6.30;;
11422;SDS011;5768;51.476;7.210;2023-08-20T13:17:12;7.13;;;6.43;;
11422;SDS011;5768;51.476;7.210;2023-08-20T13:22:16;7.32;;;6.28;;
11422;SDS011;5768;51.476;7.210;2023-08-20T13:27:19;6.65;;;5.70;;
11422;SDS011;5768;51.476;7.210;2023-08-20T13:32:21;5.80;;;5.30;;
11422;SDS011;5768;51.476;7.210;2023-08-20T13:37:25;4.80;;;4.40;;
11422;SDS011;5768;51.476;7.210;2023-08-20T13:42:29;6.90;;;6.40;;
11422;SDS011;5768;51.476;7.210;2023-08-20T13:47:31;5.45;;;4.93;;
11422;SDS011;5768;51.476;7.210;2023-08-20T13:52:35;5.22;;;4.72;;
11422;SDS011;5768;51.476;7.210;2023-08-20T13:57:38;9.98;;;4.30;;
11422;SDS011;5768;51.476;7.210;2023-08-20T14:02:40;4.80;;;4.40;;
11422;SDS011;5768;51.476;7.210;2023-08-20T14:07:44;5.22;;;4.15;;
11422;SDS011;5768;51.476;7.210;2023-08-20T14:12:47;5.57;;;3.80;;
11422;SDS011;5768;51.476;7.210;2023-08-20T14:17:49;5.30;;;3.83;;
11422;SDS011;5768;51.476;7.210;2023-08-20T14:22:53;4.07;;;3.63;;
11422;SDS011;5768;51.476;7.210;2023-08-20T14:27:55;4.45;;;3.63;;
11422;SDS011;5768;51.476;7.210;2023-08-20T14:32:58;4.68;;;3.47;;
11422;SDS011;5768;51.476;7.210;2023-08-20T14:38:01;3.67;;;2.95;;
11422;SDS011;5768;51.476;7.210;2023-08-20T14:43:04;5.28;;;4.10;;
11422;SDS011;5768;51.476;7.210;2023-08-20T14:48:06;3.47;;;2.50;;
11422;SDS011;5768;51.476;7.210;2023-08-20T14:53:10;3.72;;;2.83;;
11422;SDS011;5768;51.476;7.210;2023-08-20T14:58:12;5.53;;;2.58;;
11422;SDS011;5768;51.476;7.210;2023-08-20T15:03:14;4.00;;;2.33;;
11422;SDS011;5768;51.476;7.210;2023-08-20T15:08:19;5.13;;;2.40;;
11422;SDS011;5768;51.476;7.210;2023-08-20T15:13:22;2.65;;;2.30;;
11422;SDS011;5768;51.476;7.210;2023-08-20T15:18:25;3.17;;;2.60;;
11422;SDS011;5768;51.476;7.210;2023-08-20T15:23:28;3.67;;;2.20;;
11422;SDS011;5768;51.476;7.210;2023-08-20T15:28:31;3.15;;;2.42;;
11422;SDS011;5768;51.476;7.210;2023-08-20T15:33:34;3.60;;;2.20;;
11422;SDS011;5768;51.476;7.210;2023-08-20T15:38:38;2.90;;;2.20;;
11422;SDS011;5768;51.476;7.210;2023-08-20T15:43:40;3.40;;;2.20;;
11422;SDS011;5768;51.476;7.210;2023-08-20T15:48:44;3.35;;;1.88;;
11422;SDS011;5768;51.476;7.210;2023-08-20T15:53:47;3.33;;;1.90;;
11422;SDS011;5768;51.476;7.210;2023-08-20T15:58:50;2.08;;;1.70;;
11422;SDS011;5768;51.476;7.210;2023-08-20T16:03:52;2.70;;;2.05;;
11422;SDS011;5768;51.476;7.210;2023-08-20T16:08:56;4.93;;;2.00;;
11422;SDS011;5768;51.476;7.210;2023-08-20T16:13:58;3.90;;;2.30;;
11422;SDS011;5768;51.476;7.210;2023-08-20T16:19:01;4.25;;;2.35;;
11422;SDS011;5768;51.476;7.210;2023-08-20T16:24:05;4.30;;;2.20;;
11422;SDS011;5768;51.476;7.210;2023-08-20T16:29:07;3.03;;;1.90;;
11422;SDS011;5768;51.476;7.210;2023-08-20T16:34:09;3.05;;;2.00;;
11422;SDS011;5768;51.476;7.210;2023-08-20T16:39:13;2.97;;;1.98;;
11422;SDS011;5768;51.476;7.210;2023-08-20T16:44:16;3.13;;;2.17;;
11422;SDS011;5768;51.476;7.210;2023-08-20T16:49:20;4.03;;;1.90;;
11422;SDS011;5768;51.476;7.210;2023-08-20T16:54:26;3.78;;;1.92;;
11422;SDS011;5768;51.476;7.210;2023-08-20T16:59:28;4.70;;;1.98;;
11422;SDS011;5768;51.476;7.210;2023-08-20T17:04:31;3.72;;;1.90;;
11422;SDS011;5768;51.476;7.210;2023-08-20T17:09:35;2.55;;;1.63;;
11422;SDS011;5768;51.476;7.210;2023-08-20T17:14:38;2.38;;;1.70;;
11422;SDS011;5768;51.476;7.210;2023-08-20T17:19:40;3.20;;;1.95;;
11422;SDS011;5768;51.476;7.210;2023-08-20T17:24:44;3.42;;;2.13;;
11422;SDS011;5768;51.476;7.210;2023-08-20T17:29:46;2.53;;;1.80;;
11422;SDS011;5768;51.476;7.210;2023-08-20T17:34:49;3.10;;;2.10;;
11422;SDS011;5768;51.476;7.210;2023-08-20T17:39:52;3.65;;;1.90;;
11422;SDS011;5768;51.476;7.210;2023-08-20T17:44:55;4.65;;;1.90;;
11422;SDS011;5768;51.476;7.210;2023-08-20T17:49:57;4.50;;;2.08;;
11422;SDS011;5768;51.476;7.210;2023-08-20T17:55:01;4.15;;;1.80;;
11422;SDS011;5768;51.476;7.210;2023-08-20T18:00:04;4.55;;;2.55;;
11422;SDS011;5768;51.476;7.210;2023-08-20T18:05:09;2.90;;;2.00;;
11422;SDS011;5768;51.476;7.210;2023-08-20T18:10:13;4.30;;;1.98;;
11422;SDS011;5768;51.476;7.210;2023-08-20T18:15:16;4.60;;;2.85;;
11422;SDS011;5768;51.476;7.210;2023-08-20T18:20:18;4.75;;;2.55;;
11422;SDS011;5768;51.476;7.210;2023-08-20T18:25:22;3.95;;;2.38;;
11422;SDS011;5768;51.476;7.210;2023-08-20T18:30:24;3.28;;;1.90;;
11422;SDS011;5768;51.476;7.210;2023-08-20T18:35:28;5.50;;;2.30;;
11422;SDS011;5768;51.476;7.210;2023-08-20T18:40:33;4.68;;;2.28;;
11422;SDS011;5768;51.476;7.210;2023-08-20T18:45:35;4.00;;;2.10;;
11422;SDS011;5768;51.476;7.210;2023-08-20T18:50:37;3.75;;;2.00;;
11422;SDS011;5768;51.476;7.210;2023-08-20T18:55:41;4.10;;;2.30;;
11422;SDS011;5768;51.476;7.210;2023-08-20T19:00:44;3.05;;;1.88;;
11422;SDS011;5768;51.476;7.210;2023-08-20T19:05:47;2.92;;;2.08;;
11422;SDS011;5768;51.476;7.210;2023-08-20T19:10:51;2.50;;;1.60;;
11422;SDS011;5768;51.476;7.210;2023-08-20T19:15:53;5.65;;;3.13;;
11422;SDS011;5768;51.476;7.210;2023-08-20T19:20:55;3.47;;;2.20;;
11422;SDS011;5768;51.476;7.210;2023-08-20T19:26:00;5.50;;;2.28;;
11422;SDS011;5768;51.476;7.210;2023-08-20T19:31:02;4.13;;;2.10;;
11422;SDS011;5768;51.476;7.210;2023-08-20T19:36:05;4.15;;;2.15;;
11422;SDS011;5768;51.476;7.210;2023-08-20T19:41:08;4.85;;;2.50;;
11422;SDS011;5768;51.476;7.210;2023-08-20T19:46:11;5.07;;;4.07;;
11422;SDS011;5768;51.476;7.210;2023-08-20T19:51:14;5.18;;;3.50;;
11422;SDS011;5768;51.476;7.210;2023-08-20T19:56:17;5.05;;;3.10;;
11422;SDS011;5768;51.476;7.210;2023-08-20T20:01:20;6.50;;;2.90;;
11422;SDS011;5768;51.476;7.210;2023-08-20T20:06:24;6.53;;;4.75;;
11422;SDS011;5768;51.476;7.210;2023-08-20T20:11:28;4.95;;;3.15;;
11422;SDS011;5768;51.476;7.210;2023-08-20T20:16:30;3.60;;;2.53;;
11422;SDS011;5768;51.476;7.210;2023-08-20T20:21:33;5.50;;;2.60;;
11422;SDS011;5768;51.476;7.210;2023-08-20T20:26:37;6.45;;;2.30;;
11422;SDS011;5768;51.476;7.210;2023-08-20T20:31:40;5.20;;;2.63;;
11422;SDS011;5768;51.476;7.210;2023-08-20T20:36:42;5.03;;;2.92;;
11422;SDS011;5768;51.476;7.210;2023-08-20T20:41:46;4.68;;;2.40;;
11422;SDS011;5768;51.476;7.210;2023-08-20T20:46:49;5.53;;;2.60;;
11422;SDS011;5768;51.476;7.210;2023-08-20T20:51:51;4.95;;;2.55;;
11422;SDS011;5768;51.476;7.210;2023-08-20T20:56:55;3.33;;;2.60;;
11422;SDS011;5768;51.476;7.210;2023-08-20T21:01:57;5.47;;;2.30;;
11422;SDS011;5768;51.476;7.210;2023-08-20T21:07:00;4.30;;;2.60;;
11422;SDS011;5768;51.476;7.210;2023-08-20T21:12:04;6.18;;;2.70;;
11422;SDS011;5768;51.476;7.210;2023-08-20T21:17:07;3.60;;;2.22;;
11422;SDS011;5768;51.476;7.210;2023-08-20T21:22:09;6.35;;;2.50;;
11422;SDS011;5768;51.476;7.210;2023-08-20T21:27:14;5.93;;;2.65;;
11422;SDS011;5768;51.476;7.210;2023-08-20T21:32:16;4.70;;;2.50;;
11422;SDS011;5768;51.476;7.210;2023-08-20T21:37:18;4.07;;;2.40;;
11422;SDS011;5768;51.476;7.210;2023-08-20T21:42:22;5.57;;;2.63;;
11422;SDS011;5768;51.476;7.210;2023-08-20T21:47:26;6.25;;;3.15;;
11422;SDS011;5768;51.476;7.210;2023-08-20T21:52:29;5.40;;;3.10;;
11422;SDS011;5768;51.476;7.210;2023-08-20T21:57:32;5.63;;;3.55;;
11422;SDS011;5768;51.476;7.210;2023-08-20T22:02:35;6.03;;;3.60;;
11422;SDS011;5768;51.476;7.210;2023-08-20T22:07:37;7.45;;;3.78;;
11422;SDS011;5768;51.476;7.210;2023-08-20T22:12:41;6.75;;;4.18;;
11422;SDS011;5768;51.476;7.210;2023-08-20T22:17:44;9.68;;;4.18;;
11422;SDS011;5768;51.476;7.210;2023-08-20T22:22:46;8.68;;;4.53;;
11422;SDS011;5768;51.476;7.210;2023-08-20T22:27:50;7.50;;;4.30;;
11422;SDS011;5768;51.476;7.210;2023-08-20T22:32:52;7.30;;;3.78;;
11422;SDS011;5768;51.476;7.210;2023-08-20T22:38:00;7.22;;;4.25;;
11422;SDS011;5768;51.476;7.210;2023-08-20T22:43:07;5.85;;;4.00;;
11422;SDS011;5768;51.476;7.210;2023-08-20T22:48:09;6.88;;;4.20;;
11422;SDS011;5768;51.476;7.210;2023-08-20T22:53:12;5.68;;;4.28;;
11422;SDS011;5768;51.476;7.210;2023-08-20T22:58:15;8.20;;;3.70;;
11422;SDS011;5768;51.476;7.210;2023-08-20T23:03:17;5.45;;;3.50;;
11422;SDS011;5768;51.476;7.210;2023-08-20T23:08:20;5.45;;;3.97;;
11422;SDS011;5768;51.476;7.210;2023-08-20T23:13:23;6.35;;;3.70;;
11422;SDS011;5768;51.476;7.210;2023-08-20T23:18:26;10.80;;;3.97;;
11422;SDS011;5768;51.476;7.210;2023-08-20T23:23:28;5.93;;;4.03;;
11422;SDS011;5768;51.476;7.210;2023-08-20T23:28:32;6.82;;;3.92;;
11422;SDS011;5768;51.476;7.210;2023-08-20T23:33:34;6.85;;;3.83;;
11422;SDS011;5768;51.476;7.210;2023-08-20T23:38:37;5.00;;;3.50;;
11422;SDS011;5768;51.476;7.210;2023-08-20T23:43:41;6.40;;;3.47;;
11422;SDS011;5768;51.476;7.210;2023-08-20T23:48:46;7.15;;;3.55;;
11422;SDS011;5768;51.476;7.210;2023-08-20T23:53:49;7.57;;;3.65;;
11422;SDS011;5768;51.476;7.210;2023-08-20T23:58:52;6.88;;;3.60;;
